createdAt,value
2017-12-20T00:01:39.099Z,16.17
2017-12-20T00:04:09.161Z,16.37
2017-12-20T00:06:39.095Z,14.60
2017-12-20T00:09:09.087Z,15.43
2017-12-20T00:11:39.064Z,16.00
2017-12-20T00:14:08.987Z,16.17
2017-12-20T00:16:38.904Z,16.20
2017-12-20T00:19:08.823Z,15.87
2017-12-20T00:21:38.716Z,15.27
2017-12-20T00:24:08.669Z,14.87
2017-12-20T00:26:38.584Z,15.07
2017-12-20T00:29:08.559Z,16.13
2017-12-20T00:31:38.495Z,14.87
2017-12-20T00:34:08.455Z,15.77
2017-12-20T00:36:38.381Z,17.40
2017-12-20T00:39:08.336Z,14.40
2017-12-20T00:41:38.336Z,14.70
2017-12-20T00:44:08.302Z,17.57
2017-12-20T00:46:38.202Z,16.30
2017-12-20T00:49:08.320Z,17.33
2017-12-20T00:51:38.262Z,16.13
2017-12-20T00:54:08.183Z,15.13
2017-12-20T00:56:38.071Z,15.57
2017-12-20T00:59:08.134Z,14.90
2017-12-20T01:01:38.042Z,15.63
2017-12-20T01:04:08.002Z,16.07
2017-12-20T01:06:37.907Z,14.83
2017-12-20T01:09:08.010Z,14.67
2017-12-20T01:11:37.929Z,17.13
2017-12-20T01:14:07.870Z,14.83
2017-12-20T01:16:37.778Z,15.90
2017-12-20T01:19:07.769Z,14.63
2017-12-20T01:21:37.695Z,16.43
2017-12-20T01:24:07.616Z,14.33
2017-12-20T01:26:37.628Z,16.30
2017-12-20T01:29:08.497Z,15.73
2017-12-20T01:31:38.529Z,12.57
2017-12-20T01:34:08.442Z,14.90
2017-12-20T01:36:38.365Z,14.70
2017-12-20T01:39:08.327Z,14.63
2017-12-20T01:41:38.238Z,14.03
2017-12-20T01:44:08.162Z,14.47
2017-12-20T01:46:38.167Z,14.33
2017-12-20T01:49:08.171Z,14.63
2017-12-20T01:51:38.111Z,12.70
2017-12-20T01:54:08.028Z,15.07
2017-12-20T01:56:37.910Z,13.97
2017-12-20T01:59:07.798Z,13.87
2017-12-20T02:01:37.696Z,14.23
2017-12-20T02:04:07.652Z,15.13
2017-12-20T02:06:37.630Z,14.97
2017-12-20T02:09:07.611Z,13.50
2017-12-20T02:11:37.558Z,13.53
2017-12-20T02:14:07.534Z,12.60
2017-12-20T02:16:37.459Z,12.97
2017-12-20T02:19:07.410Z,11.60
2017-12-20T02:21:37.283Z,10.07
2017-12-20T02:24:07.208Z,10.23
2017-12-20T02:26:37.105Z,9.13
2017-12-20T02:29:07.605Z,10.87
2017-12-20T02:31:37.496Z,9.87
2017-12-20T02:34:07.404Z,9.67
2017-12-20T02:36:37.279Z,10.07
2017-12-20T02:39:08.128Z,10.10
2017-12-20T02:41:38.052Z,8.27
2017-12-20T02:44:07.958Z,8.47
2017-12-20T02:46:37.868Z,8.67
2017-12-20T02:49:07.742Z,8.73
2017-12-20T02:51:37.651Z,8.20
2017-12-20T02:54:07.567Z,9.17
2017-12-20T02:56:37.485Z,7.73
2017-12-20T02:59:07.374Z,9.40
2017-12-20T03:01:37.558Z,9.90
2017-12-20T03:04:07.470Z,10.17
2017-12-20T03:06:37.385Z,9.17
2017-12-20T03:09:07.270Z,10.43
2017-12-20T03:11:37.187Z,10.03
2017-12-20T03:14:07.195Z,9.60
2017-12-20T03:16:37.113Z,9.43
2017-12-20T03:19:07.051Z,10.17
2017-12-20T03:21:37.012Z,10.53
2017-12-20T03:24:06.949Z,11.40
2017-12-20T03:26:36.880Z,10.37
2017-12-20T03:29:06.764Z,11.07
2017-12-20T03:31:36.668Z,9.60
2017-12-20T03:34:06.640Z,11.47
2017-12-20T03:36:36.555Z,10.50
2017-12-20T03:39:06.468Z,11.00
2017-12-20T03:41:36.401Z,10.70
2017-12-20T03:44:06.350Z,11.83
2017-12-20T03:46:36.275Z,12.37
2017-12-20T03:49:06.247Z,12.70
2017-12-20T03:51:36.150Z,12.30
2017-12-20T03:54:06.079Z,12.20
2017-12-20T03:56:35.983Z,11.90
2017-12-20T03:59:05.895Z,11.87
2017-12-20T04:01:35.824Z,13.03
2017-12-20T04:04:05.722Z,13.30
2017-12-20T04:06:35.660Z,12.97
2017-12-20T04:09:05.552Z,13.20
2017-12-20T04:11:35.483Z,11.93
2017-12-20T04:14:05.403Z,12.97
2017-12-20T04:16:35.318Z,11.90
2017-12-20T04:19:05.219Z,13.43
2017-12-20T04:21:35.166Z,12.30
2017-12-20T04:24:05.084Z,11.93
2017-12-20T04:26:34.998Z,14.00
2017-12-20T04:29:04.918Z,13.43
2017-12-20T04:31:34.828Z,13.97
2017-12-20T04:34:04.739Z,15.00
2017-12-20T04:36:34.760Z,13.17
2017-12-20T04:39:04.652Z,13.73
2017-12-20T04:41:34.547Z,14.03
2017-12-20T04:44:04.541Z,15.33
2017-12-20T04:46:34.497Z,16.03
2017-12-20T04:49:04.427Z,17.40
2017-12-20T04:51:34.325Z,16.97
2017-12-20T04:54:04.265Z,14.67
2017-12-20T04:56:34.192Z,16.00
2017-12-20T04:59:04.127Z,15.37
2017-12-20T05:01:34.080Z,14.93
2017-12-20T05:04:04.051Z,16.00
2017-12-20T05:06:33.951Z,15.80
2017-12-20T05:09:03.847Z,17.40
2017-12-20T05:11:34.632Z,16.27
2017-12-20T05:14:04.704Z,17.80
2017-12-20T05:16:34.721Z,19.47
2017-12-20T05:19:04.653Z,19.50
2017-12-20T05:21:34.583Z,19.07
2017-12-20T05:24:04.583Z,18.87
2017-12-20T05:26:34.501Z,20.70
2017-12-20T05:29:04.704Z,20.13
2017-12-20T05:31:34.651Z,19.20
2017-12-20T05:34:04.535Z,19.37
2017-12-20T05:36:34.553Z,18.80
2017-12-20T05:39:04.437Z,18.67
2017-12-20T05:41:34.359Z,20.30
2017-12-20T05:44:04.262Z,19.73
2017-12-20T05:46:34.259Z,18.73
2017-12-20T05:49:04.155Z,18.13
2017-12-20T05:51:35.827Z,17.23
2017-12-20T05:54:05.794Z,17.20
2017-12-20T05:56:35.831Z,17.63
2017-12-20T05:59:05.805Z,16.00
2017-12-20T06:01:35.813Z,15.37
2017-12-20T06:04:06.964Z,14.47
2017-12-20T06:06:37.009Z,16.20
2017-12-20T06:09:06.980Z,15.67
2017-12-20T06:11:36.902Z,15.43
2017-12-20T06:14:06.805Z,16.07
2017-12-20T06:16:36.843Z,16.10
2017-12-20T06:19:06.751Z,17.00
2017-12-20T06:21:36.705Z,15.83
2017-12-20T06:24:06.612Z,15.10
2017-12-20T06:26:36.591Z,16.23
2017-12-20T06:29:06.600Z,16.17
2017-12-20T06:31:36.617Z,15.40
2017-12-20T06:34:06.533Z,16.40
2017-12-20T06:36:36.580Z,17.50
2017-12-20T06:39:06.480Z,16.97
2017-12-20T06:41:36.392Z,16.87
2017-12-20T06:44:06.316Z,15.23
2017-12-20T06:46:36.227Z,15.73
2017-12-20T06:49:06.139Z,18.20
2017-12-20T06:51:36.212Z,16.30
2017-12-20T06:54:06.146Z,14.20
2017-12-20T06:56:36.083Z,16.93
2017-12-20T06:59:05.990Z,19.03
2017-12-20T07:01:36.014Z,20.47
2017-12-20T07:04:05.904Z,18.03
2017-12-20T07:06:35.846Z,16.90
2017-12-20T07:09:05.763Z,18.07
2017-12-20T07:11:35.683Z,19.80
2017-12-20T07:14:05.638Z,19.93
2017-12-20T07:16:35.634Z,19.73
2017-12-20T07:19:05.583Z,19.53
2017-12-20T07:21:35.533Z,21.67
2017-12-20T07:24:05.457Z,24.43
2017-12-20T07:26:35.471Z,19.40
2017-12-20T07:29:05.387Z,18.30
2017-12-20T07:31:35.373Z,19.30
2017-12-20T07:34:07.127Z,20.10
2017-12-20T07:36:37.072Z,17.70
2017-12-20T07:39:07.085Z,17.17
2017-12-20T07:41:36.998Z,16.90
2017-12-20T07:44:08.660Z,17.30
2017-12-20T07:46:38.560Z,16.50
2017-12-20T07:49:08.492Z,16.17
2017-12-20T07:51:38.413Z,16.10
2017-12-20T07:54:08.375Z,16.77
2017-12-20T07:56:38.309Z,16.90
2017-12-20T07:59:08.323Z,17.17
2017-12-20T08:01:38.236Z,17.30
2017-12-20T08:04:08.290Z,18.00
2017-12-20T08:06:38.202Z,16.57
2017-12-20T08:09:08.179Z,18.10
2017-12-20T08:11:38.132Z,19.23
2017-12-20T08:14:08.115Z,16.80
2017-12-20T08:16:38.031Z,17.60
2017-12-20T08:19:07.945Z,16.73
2017-12-20T08:21:37.906Z,16.53
2017-12-20T08:24:07.839Z,16.43
2017-12-20T08:26:37.798Z,17.93
2017-12-20T08:29:07.768Z,19.50
2017-12-20T08:31:37.754Z,19.73
2017-12-20T08:34:07.784Z,19.73
2017-12-20T08:36:37.780Z,20.17
2017-12-20T08:39:07.779Z,20.40
2017-12-20T08:41:37.706Z,20.20
2017-12-20T08:44:07.696Z,17.67
2017-12-20T08:46:37.654Z,20.10
2017-12-20T08:49:07.607Z,20.23
2017-12-20T08:51:38.862Z,18.63
2017-12-20T08:54:08.780Z,17.77
2017-12-20T08:56:38.730Z,18.60
2017-12-20T08:59:08.630Z,18.70
2017-12-20T09:01:38.610Z,15.67
2017-12-20T09:04:08.648Z,16.10
2017-12-20T09:06:38.590Z,15.57
2017-12-20T09:09:08.486Z,17.20
2017-12-20T09:11:38.484Z,17.07
2017-12-20T09:14:09.455Z,16.83
2017-12-20T09:16:39.397Z,17.73
2017-12-20T09:19:09.307Z,16.10
2017-12-20T09:21:39.250Z,14.60
2017-12-20T09:24:09.173Z,15.93
2017-12-20T09:26:39.817Z,14.87
2017-12-20T09:29:09.789Z,15.30
2017-12-20T09:31:39.736Z,17.03
2017-12-20T09:34:09.711Z,14.80
2017-12-20T09:36:40.100Z,16.00
2017-12-20T09:39:10.089Z,13.13
2017-12-20T09:41:40.023Z,12.80
2017-12-20T09:44:09.982Z,11.80
2017-12-20T09:46:39.932Z,11.90
2017-12-20T09:49:09.930Z,10.70
2017-12-20T09:51:39.848Z,10.07
2017-12-20T09:54:10.071Z,10.00
2017-12-20T09:56:39.980Z,9.80
2017-12-20T09:59:09.915Z,11.67
2017-12-20T10:01:39.793Z,10.47
2017-12-20T10:04:09.715Z,11.27
2017-12-20T10:06:39.658Z,11.50
2017-12-20T10:09:09.539Z,11.60
2017-12-20T10:11:39.465Z,9.67
2017-12-20T10:14:09.390Z,12.43
2017-12-20T10:16:39.317Z,12.20
2017-12-20T10:19:09.212Z,12.73
2017-12-20T10:21:40.868Z,12.73
2017-12-20T10:24:10.784Z,12.60
2017-12-20T10:26:40.847Z,12.03
2017-12-20T10:29:10.762Z,11.47
2017-12-20T10:31:40.755Z,10.20
2017-12-20T10:34:10.691Z,9.20
2017-12-20T10:36:40.650Z,9.73
2017-12-20T10:39:10.571Z,10.77
2017-12-20T10:41:40.537Z,9.50
2017-12-20T10:44:10.455Z,9.77
2017-12-20T10:46:40.546Z,10.50
2017-12-20T10:49:10.497Z,9.33
2017-12-20T10:51:40.436Z,8.83
2017-12-20T10:54:10.420Z,9.13
2017-12-20T10:56:40.386Z,9.63
2017-12-20T10:59:10.302Z,9.07
2017-12-20T11:01:40.219Z,10.80
2017-12-20T11:04:10.110Z,10.77
2017-12-20T11:06:40.345Z,11.10
2017-12-20T11:09:10.509Z,13.10
2017-12-20T11:11:40.578Z,13.73
2017-12-20T11:14:10.508Z,15.13
2017-12-20T11:16:40.451Z,14.57
2017-12-20T11:19:10.531Z,16.57
2017-12-20T11:21:40.430Z,16.03
2017-12-20T11:24:10.348Z,15.67
2017-12-20T11:26:40.308Z,15.70
2017-12-20T11:29:10.223Z,14.93
2017-12-20T11:31:40.506Z,14.87
2017-12-20T11:34:10.421Z,13.77
2017-12-20T11:36:40.404Z,15.23
2017-12-20T11:39:10.323Z,17.60
2017-12-20T11:41:40.658Z,15.40
2017-12-20T11:44:10.551Z,15.10
2017-12-20T11:46:40.518Z,15.40
2017-12-20T11:49:10.414Z,15.83
2017-12-20T11:51:40.340Z,16.10
2017-12-20T11:54:10.249Z,15.20
2017-12-20T11:56:40.266Z,15.37
2017-12-20T11:59:10.185Z,14.73
2017-12-20T12:01:40.134Z,15.27
2017-12-20T12:04:10.049Z,15.87
2017-12-20T12:06:40.751Z,14.83
2017-12-20T12:09:10.787Z,14.10
2017-12-20T12:11:40.774Z,13.50
2017-12-20T12:14:10.669Z,15.23
2017-12-20T12:16:40.832Z,13.47
2017-12-20T12:19:10.746Z,14.30
2017-12-20T12:21:40.661Z,14.43
2017-12-20T12:24:10.575Z,14.43
2017-12-20T12:26:40.652Z,15.27
2017-12-20T12:29:10.573Z,16.40
2017-12-20T12:31:40.604Z,14.77
2017-12-20T12:34:10.658Z,16.13
2017-12-20T12:36:40.633Z,15.60
2017-12-20T12:39:10.626Z,18.30
2017-12-20T12:41:40.880Z,15.37
2017-12-20T12:44:10.929Z,16.37
2017-12-20T12:46:41.196Z,13.70
2017-12-20T12:49:11.212Z,15.17
2017-12-20T12:51:41.534Z,22.00
2017-12-20T12:54:11.464Z,17.23
2017-12-20T12:56:41.424Z,17.60
2017-12-20T12:59:11.307Z,16.13
2017-12-20T13:01:41.254Z,17.50
2017-12-20T13:04:11.172Z,16.53
2017-12-20T13:06:41.223Z,16.60
2017-12-20T13:09:11.151Z,17.60
2017-12-20T13:11:41.155Z,16.87
2017-12-20T13:14:11.108Z,16.80
2017-12-20T13:16:41.408Z,18.20
2017-12-20T13:19:11.391Z,16.57
2017-12-20T13:21:41.460Z,16.30
2017-12-20T13:24:11.373Z,18.33
2017-12-20T13:26:41.321Z,17.40
2017-12-20T13:29:11.236Z,18.37
2017-12-20T13:31:41.233Z,17.50
2017-12-20T13:34:11.168Z,17.23
2017-12-20T13:36:41.288Z,15.90
2017-12-20T13:39:11.212Z,17.90
2017-12-20T13:41:41.434Z,16.20
2017-12-20T13:44:11.377Z,19.23
2017-12-20T13:46:41.399Z,16.90
2017-12-20T13:49:11.314Z,17.50
2017-12-20T13:51:41.566Z,16.10
2017-12-20T13:54:11.456Z,17.27
2017-12-20T13:56:41.647Z,15.30
2017-12-20T13:59:11.658Z,15.73
2017-12-20T14:01:41.559Z,14.73
2017-12-20T14:04:11.478Z,15.87
2017-12-20T14:06:41.486Z,15.27
2017-12-20T14:09:11.513Z,16.67
2017-12-20T14:11:41.557Z,15.40
2017-12-20T14:14:11.446Z,17.10
2017-12-20T14:16:41.691Z,17.77
2017-12-20T14:19:11.621Z,17.07
2017-12-20T14:21:41.846Z,16.50
2017-12-20T14:24:11.861Z,19.10
2017-12-20T14:26:41.814Z,17.63
2017-12-20T14:29:11.740Z,17.50
2017-12-20T14:31:41.718Z,19.40
2017-12-20T14:34:11.755Z,18.30
2017-12-20T14:36:41.971Z,18.37
2017-12-20T14:39:11.901Z,17.70
2017-12-20T14:41:41.840Z,18.90
2017-12-20T14:44:11.920Z,19.47
2017-12-20T14:46:42.215Z,21.00
2017-12-20T14:49:12.119Z,19.20
2017-12-20T14:51:42.411Z,21.13
2017-12-20T14:54:12.326Z,20.70
2017-12-20T14:56:42.275Z,20.87
2017-12-20T14:59:12.231Z,22.13
2017-12-20T15:01:42.278Z,20.43
2017-12-20T15:04:12.174Z,21.40
2017-12-20T15:06:42.133Z,22.40
2017-12-20T15:09:12.070Z,22.13
2017-12-20T15:11:42.226Z,23.17
2017-12-20T15:14:12.167Z,21.87
2017-12-20T15:16:42.167Z,20.73
2017-12-20T15:19:12.081Z,20.20
2017-12-20T15:21:42.034Z,23.07
2017-12-20T15:24:11.965Z,20.30
2017-12-20T15:26:41.878Z,18.70
2017-12-20T15:29:11.794Z,20.17
2017-12-20T15:31:41.654Z,20.60
2017-12-20T15:34:11.884Z,19.60
2017-12-20T15:36:41.787Z,19.07
2017-12-20T15:39:11.743Z,20.43
2017-12-20T15:41:41.621Z,20.90
2017-12-20T15:44:11.598Z,16.50
2017-12-20T15:46:41.531Z,16.90
2017-12-20T15:49:11.768Z,18.00
2017-12-20T15:51:41.751Z,18.47
2017-12-20T15:54:11.870Z,16.87
2017-12-20T15:56:41.827Z,17.37
2017-12-20T15:59:12.082Z,15.77
2017-12-20T16:01:41.998Z,17.03
2017-12-20T16:04:11.925Z,15.63
2017-12-20T16:06:41.978Z,14.70
2017-12-20T16:09:11.903Z,13.40
2017-12-20T16:11:41.828Z,13.90
2017-12-20T16:14:11.772Z,12.37
2017-12-20T16:16:41.694Z,12.27
2017-12-20T16:19:11.681Z,12.20
2017-12-20T16:21:41.743Z,12.40
2017-12-20T16:24:11.657Z,10.03
2017-12-20T16:26:41.651Z,10.10
2017-12-20T16:29:11.544Z,10.17
2017-12-20T16:31:41.496Z,10.50
2017-12-20T16:34:11.459Z,11.00
2017-12-20T16:36:41.837Z,11.70
2017-12-20T16:39:11.800Z,10.70
2017-12-20T16:41:41.825Z,10.50
2017-12-20T16:44:11.779Z,10.50
2017-12-20T16:46:41.765Z,11.23
2017-12-20T16:49:11.859Z,9.60
2017-12-20T16:51:41.829Z,13.60
2017-12-20T16:54:11.703Z,10.70
2017-12-20T16:56:41.987Z,11.73
2017-12-20T16:59:12.512Z,13.07
2017-12-20T17:01:42.450Z,11.40
2017-12-20T17:04:12.384Z,11.90
2017-12-20T17:06:42.606Z,12.20
2017-12-20T17:09:12.497Z,11.77
2017-12-20T17:11:42.589Z,11.87
2017-12-20T17:14:12.509Z,12.33
2017-12-20T17:16:42.453Z,12.53
2017-12-20T17:19:12.395Z,12.87
2017-12-20T17:21:42.457Z,14.23
2017-12-20T17:24:12.377Z,15.10
2017-12-20T17:26:43.141Z,14.30
2017-12-20T17:29:13.192Z,13.40
2017-12-20T17:31:43.165Z,14.33
2017-12-20T17:34:13.131Z,14.40
2017-12-20T17:36:44.000Z,14.27
2017-12-20T17:39:13.991Z,13.87
2017-12-20T17:41:43.997Z,15.10
2017-12-20T17:44:13.892Z,14.40
2017-12-20T17:46:43.898Z,17.50
2017-12-20T17:49:13.838Z,17.30
2017-12-20T17:51:43.814Z,17.17
2017-12-20T17:54:13.762Z,15.60
2017-12-20T17:56:43.802Z,16.47
2017-12-20T17:59:13.723Z,17.50
2017-12-20T18:01:43.771Z,17.90
2017-12-20T18:04:13.824Z,17.17
2017-12-20T18:06:43.793Z,19.30
2017-12-20T18:09:13.755Z,16.80
2017-12-20T18:11:43.763Z,16.70
2017-12-20T18:14:13.704Z,19.10
2017-12-20T18:16:44.009Z,20.30
2017-12-20T18:19:14.022Z,19.80
2017-12-20T18:21:44.080Z,19.23
2017-12-20T18:24:13.967Z,20.57
2017-12-20T18:26:43.992Z,18.97
2017-12-20T18:29:13.890Z,22.43
2017-12-20T18:31:43.841Z,20.03
2017-12-20T18:34:13.741Z,23.60
2017-12-20T18:36:43.668Z,22.40
2017-12-20T18:39:13.607Z,22.40
2017-12-20T18:41:43.582Z,23.30
2017-12-20T18:44:13.518Z,21.93
2017-12-20T18:46:43.410Z,25.90
2017-12-20T18:49:13.417Z,24.70
2017-12-20T18:51:43.298Z,21.70
2017-12-20T18:54:13.238Z,28.23
2017-12-20T18:56:43.122Z,32.30
2017-12-20T18:59:13.162Z,25.53
2017-12-20T19:01:43.130Z,35.63
2017-12-20T19:04:13.041Z,28.60
2017-12-20T19:06:42.967Z,21.37
2017-12-20T19:09:12.880Z,22.37
2017-12-20T19:11:42.804Z,20.57
2017-12-20T19:14:12.765Z,19.10
2017-12-20T19:16:42.737Z,21.10
2017-12-20T19:19:12.698Z,20.90
2017-12-20T19:21:42.745Z,20.77
2017-12-20T19:24:12.758Z,22.97
2017-12-20T19:26:42.746Z,21.40
2017-12-20T19:29:12.669Z,21.60
2017-12-20T19:31:42.615Z,20.00
2017-12-20T19:34:12.523Z,20.50
2017-12-20T19:36:42.503Z,20.50
2017-12-20T19:39:12.454Z,19.10
2017-12-20T19:41:42.387Z,18.03
2017-12-20T19:44:12.293Z,19.97
2017-12-20T19:46:42.256Z,20.07
2017-12-20T19:49:12.215Z,18.53
2017-12-20T19:51:42.166Z,19.33
2017-12-20T19:54:12.092Z,16.80
2017-12-20T19:56:42.107Z,19.43
2017-12-20T19:59:12.153Z,17.33
2017-12-20T20:01:42.221Z,18.80
2017-12-20T20:04:12.403Z,17.20
2017-12-20T20:06:42.404Z,18.00
2017-12-20T20:09:12.370Z,16.10
2017-12-20T20:11:42.402Z,20.00
2017-12-20T20:14:12.407Z,17.37
2017-12-20T20:16:42.529Z,17.27
2017-12-20T20:19:12.521Z,16.00
2017-12-20T20:21:42.493Z,16.20
2017-12-20T20:24:12.882Z,16.23
2017-12-20T20:26:42.883Z,14.57
2017-12-20T20:29:12.821Z,15.90
2017-12-20T20:31:42.849Z,14.90
2017-12-20T20:34:12.814Z,15.77
2017-12-20T20:36:42.787Z,17.63
2017-12-20T20:39:12.741Z,17.93
2017-12-20T20:41:42.664Z,15.13
2017-12-20T20:44:12.619Z,15.53
2017-12-20T20:46:42.578Z,15.00
2017-12-20T20:49:12.572Z,16.90
2017-12-20T20:51:42.609Z,17.00
2017-12-20T20:54:12.681Z,16.03
2017-12-20T20:56:42.948Z,15.73
2017-12-20T20:59:12.892Z,16.53
2017-12-20T21:01:42.856Z,16.17
2017-12-20T21:04:12.786Z,16.03
2017-12-20T21:06:42.787Z,17.60
2017-12-20T21:09:12.875Z,16.97
2017-12-20T21:11:42.995Z,17.00
2017-12-20T21:14:13.099Z,16.90
2017-12-20T21:16:43.096Z,18.17
2017-12-20T21:19:13.032Z,16.30
2017-12-20T21:21:42.960Z,14.47
2017-12-20T21:24:12.962Z,15.83
2017-12-20T21:26:42.949Z,15.50
2017-12-20T21:29:12.923Z,17.10
2017-12-20T21:31:42.855Z,17.03
2017-12-20T21:34:12.791Z,16.60
2017-12-20T21:36:42.719Z,14.93
2017-12-20T21:39:12.673Z,13.90
2017-12-20T21:41:43.157Z,17.13
2017-12-20T21:44:18.836Z,16.10
2017-12-20T21:46:49.232Z,17.37
2017-12-20T21:49:19.199Z,20.23
2017-12-20T21:51:49.122Z,18.00
2017-12-20T21:54:20.707Z,16.67
2017-12-20T21:56:50.640Z,17.80
2017-12-20T21:59:20.706Z,18.23
2017-12-20T22:01:50.613Z,17.90
2017-12-20T22:04:20.621Z,18.93
2017-12-20T22:06:50.555Z,17.77
2017-12-20T22:09:20.505Z,19.10
2017-12-20T22:11:50.425Z,19.23
2017-12-20T22:14:20.441Z,19.40
2017-12-20T22:16:51.366Z,17.30
2017-12-20T22:19:21.422Z,16.80
2017-12-20T22:21:51.408Z,18.07
2017-12-20T22:24:21.546Z,18.23
2017-12-20T22:26:51.442Z,17.60
2017-12-20T22:29:21.366Z,16.50
2017-12-20T22:31:51.274Z,19.30
2017-12-20T22:34:21.383Z,17.20
2017-12-20T22:36:51.325Z,17.50
2017-12-20T22:39:21.284Z,17.70
2017-12-20T22:41:51.235Z,15.80
2017-12-20T22:44:21.187Z,16.97
2017-12-20T22:46:51.072Z,16.53
2017-12-20T22:49:21.194Z,17.47
2017-12-20T22:51:51.343Z,16.20
2017-12-20T22:54:21.669Z,15.87
2017-12-20T22:56:51.710Z,16.10
2017-12-20T22:59:21.676Z,16.70
2017-12-20T23:01:51.636Z,17.73
2017-12-20T23:04:21.634Z,17.67
2017-12-20T23:06:51.590Z,18.37
2017-12-20T23:09:21.528Z,18.27
2017-12-20T23:11:51.460Z,19.00
2017-12-20T23:14:21.459Z,17.93
2017-12-20T23:16:51.513Z,19.10
2017-12-20T23:19:21.467Z,18.67
2017-12-20T23:21:51.420Z,19.03
2017-12-20T23:24:21.492Z,20.13
2017-12-20T23:26:51.397Z,20.00
2017-12-20T23:29:21.363Z,20.70
2017-12-20T23:31:51.316Z,19.27
2017-12-20T23:34:21.288Z,19.03
2017-12-20T23:36:51.204Z,19.33
2017-12-20T23:39:21.205Z,19.57
2017-12-20T23:41:51.118Z,19.93
2017-12-20T23:44:21.086Z,19.20
2017-12-20T23:46:50.981Z,21.70
2017-12-20T23:49:20.958Z,20.13
2017-12-20T23:51:50.872Z,20.07
2017-12-20T23:54:20.773Z,22.27
2017-12-20T23:56:50.684Z,22.40
2017-12-20T23:59:20.598Z,21.27
